Time;durP1;ratioP1;P1;durP2;ratioP2;P2;SDS_P1;SDS_P2;PMS_P1;PMS_P2;Temp;Humidity;BMP_temperature;BMP_pressure;BME280_temperature;BME280_humidity;BME280_pressure;Samples;Min_cycle;Max_cycle;Signal;HPM_P1;HPM_P2
2022/04/18 00:01:22;;;;;;;;;;;9.40;81.60;;;;;;5061490;28;19952;-75
2022/04/18 00:03:48;;;;;;;;;;;9.40;82.00;;;;;;5068121;28;19924;-75
2022/04/18 00:06:14;;;;;;;;;;;9.20;84.20;;;;;;5064394;28;20368;-75
2022/04/18 00:08:39;;;;;;;;;;;9.10;88.20;;;;;;5069842;28;19938;-75
2022/04/18 00:11:05;;;;;;;;;;;8.90;88.80;;;;;;5059954;28;19917;-75
2022/04/18 00:13:30;;;;;;;;;;;8.70;91.00;;;;;;5069701;28;19921;-75
2022/04/18 00:15:56;;;;;;;;;;;8.50;91.50;;;;;;5067596;28;19978;-76
2022/04/18 00:18:21;;;;;;;;;;;8.40;92.30;;;;;;5071812;28;20192;-75
2022/04/18 00:20:47;;;;;;;;;;;8.30;94.90;;;;;;5069034;28;20328;-75
2022/04/18 00:23:13;;;;;;;;;;;8.20;94.30;;;;;;5061481;28;20227;-75
2022/04/18 00:25:38;;;;;;;;;;;8.00;95.40;;;;;;5059521;28;20020;-75
2022/04/18 00:28:04;;;;;;;;;;;8.00;96.20;;;;;;5066374;28;19998;-76
2022/04/18 00:30:30;;;;;;;;;;;7.80;96.10;;;;;;5074070;28;19991;-75
2022/04/18 00:32:56;;;;;;;;;;;7.60;96.90;;;;;;5071384;28;20315;-80
2022/04/18 00:35:21;;;;;;;;;;;7.50;99.90;;;;;;5071300;28;19916;-74
2022/04/18 00:37:47;;;;;;;;;;;7.40;99.90;;;;;;5058939;28;20192;-75
2022/04/18 00:40:12;;;;;;;;;;;7.30;99.90;;;;;;5073441;28;20005;-80
2022/04/18 00:42:41;;;;;;;;;;;7.30;99.90;;;;;;5073331;28;19924;-75
2022/04/18 00:45:07;;;;;;;;;;;7.40;99.90;;;;;;5071215;28;19919;-78
2022/04/18 00:47:32;;;;;;;;;;;7.50;99.90;;;;;;5071996;28;19913;-75
2022/04/18 00:49:58;;;;;;;;;;;7.60;99.90;;;;;;5069348;28;19927;-75
2022/04/18 00:52:25;;;;;;;;;;;7.60;99.90;;;;;;5069407;28;20038;-75
2022/04/18 00:54:54;;;;;;;;;;;7.60;99.90;;;;;;5072477;28;20014;-75
2022/04/18 00:57:20;;;;;;;;;;;7.60;99.90;;;;;;5074327;28;20303;-76
2022/04/18 00:59:46;;;;;;;;;;;7.60;99.90;;;;;;5061026;28;19956;-78
2022/04/18 01:02:13;;;;;;;;;;;7.60;99.90;;;;;;5061128;28;19959;-75
2022/04/18 01:04:39;;;;;;;;;;;7.80;97.10;;;;;;5073686;28;20500;-74
2022/04/18 01:07:05;;;;;;;;;;;7.90;97.60;;;;;;5063819;28;19975;-76
2022/04/18 01:09:32;;;;;;;;;;;7.90;96.90;;;;;;5062903;28;20299;-75
2022/04/18 01:11:58;;;;;;;;;;;7.90;95.70;;;;;;5067444;28;19928;-74
2022/04/18 01:14:23;;;;;;;;;;;8.00;95.00;;;;;;5080381;28;19916;-79
2022/04/18 01:16:49;;;;;;;;;;;8.10;94.60;;;;;;5067271;28;19913;-75
2022/04/18 01:19:14;;;;;;;;;;;8.10;94.10;;;;;;5060108;28;19917;-75
2022/04/18 01:21:40;;;;;;;;;;;8.20;94.10;;;;;;5066072;28;19912;-75
2022/04/18 01:28:58;;;;;;;;;;;8.20;94.10;;;;;;5074453;28;19912;-75
2022/04/18 01:29:35;;;;;;;;;;;8.20;94.10;;;;;;5072533;28;19937;-75
2022/04/18 01:32:01;;;;;;;;;;;8.10;94.10;;;;;;5069844;28;19920;-75
2022/04/18 01:34:26;;;;;;;;;;;8.10;95.40;;;;;;5070428;28;20219;-75
2022/04/18 01:36:52;;;;;;;;;;;8.00;96.20;;;;;;5072576;28;20358;-76
2022/04/18 01:39:17;;;;;;;;;;;7.90;95.70;;;;;;5058630;28;19912;-75
2022/04/18 01:41:43;;;;;;;;;;;7.70;96.60;;;;;;5068681;28;19912;-75
2022/04/18 01:44:08;;;;;;;;;;;7.50;98.30;;;;;;5070627;28;19916;-78
2022/04/18 01:46:34;;;;;;;;;;;7.30;99.90;;;;;;5065378;28;19995;-75
2022/04/18 01:48:59;;;;;;;;;;;7.20;99.80;;;;;;5066311;28;19948;-75
2022/04/18 01:51:25;;;;;;;;;;;7.10;99.40;;;;;;5077390;28;19958;-75
2022/04/18 01:53:50;;;;;;;;;;;7.00;99.90;;;;;;5060047;28;19951;-76
2022/04/18 01:56:16;;;;;;;;;;;7.00;99.90;;;;;;5061293;28;20351;-75
2022/04/18 01:58:42;;;;;;;;;;;7.00;99.90;;;;;;5075382;28;20265;-76
2022/04/18 02:01:07;;;;;;;;;;;6.90;99.90;;;;;;5075564;28;19913;-75
2022/04/18 02:03:33;;;;;;;;;;;6.70;99.90;;;;;;5064665;28;20292;-75
2022/04/18 02:05:59;;;;;;;;;;;6.70;99.90;;;;;;5066050;28;19916;-75
2022/04/18 02:08:26;;;;;;;;;;;6.70;99.90;;;;;;5078055;28;19912;-76
2022/04/18 02:10:52;;;;;;;;;;;6.70;99.90;;;;;;5075732;28;19927;-76
2022/04/18 02:13:17;;;;;;;;;;;6.70;99.90;;;;;;5072106;28;19920;-75
2022/04/18 02:15:43;;;;;;;;;;;6.60;99.90;;;;;;5076948;28;19912;-75
2022/04/18 02:18:09;;;;;;;;;;;6.60;99.90;;;;;;5064707;28;19916;-76
2022/04/18 02:20:34;;;;;;;;;;;6.50;99.90;;;;;;5077331;28;19912;-75
2022/04/18 02:23:00;;;;;;;;;;;6.60;99.90;;;;;;5063506;28;19957;-75
2022/04/18 02:25:25;;;;;;;;;;;6.70;99.90;;;;;;5077807;28;19909;-75
2022/04/18 02:27:54;;;;;;;;;;;6.70;99.90;;;;;;5072405;28;19917;-76
2022/04/18 02:30:19;;;;;;;;;;;6.70;99.90;;;;;;5076263;28;19939;-75
2022/04/18 02:32:48;;;;;;;;;;;6.60;99.90;;;;;;5067705;28;19967;-76
2022/04/18 02:35:14;;;;;;;;;;;6.40;99.90;;;;;;5067749;28;20296;-76
2022/04/18 02:37:40;;;;;;;;;;;6.30;99.90;;;;;;5060225;28;19912;-76
2022/04/18 02:40:06;;;;;;;;;;;6.10;99.90;;;;;;5057370;28;19908;-75
2022/04/18 02:42:31;;;;;;;;;;;6.00;99.90;;;;;;5065934;28;20099;-76
2022/04/18 02:44:57;;;;;;;;;;;5.90;99.90;;;;;;5066241;28;19923;-78
2022/04/18 02:47:22;;;;;;;;;;;5.80;99.90;;;;;;5063012;28;19913;-75
2022/04/18 02:49:49;;;;;;;;;;;5.70;99.90;;;;;;5065176;28;20375;-75
2022/04/18 02:52:16;;;;;;;;;;;5.70;99.90;;;;;;5070248;28;19917;-75
2022/04/18 02:54:44;;;;;;;;;;;5.70;99.90;;;;;;5063862;28;21433;-75
2022/04/18 02:57:11;;;;;;;;;;;5.80;99.90;;;;;;5063540;28;19974;-75
2022/04/18 02:59:37;;;;;;;;;;;5.90;99.90;;;;;;5067887;28;19967;-75
2022/04/18 03:02:02;;;;;;;;;;;6.10;99.90;;;;;;5063200;28;19916;-76
2022/04/18 03:04:28;;;;;;;;;;;6.10;99.90;;;;;;5074808;28;19920;-75
2022/04/18 03:06:54;;;;;;;;;;;6.20;99.90;;;;;;5077176;28;19987;-75
2022/04/18 03:09:20;;;;;;;;;;;6.20;99.90;;;;;;5072396;28;20303;-75
2022/04/18 03:11:45;;;;;;;;;;;6.20;99.90;;;;;;5058683;28;19927;-75
2022/04/18 03:14:11;;;;;;;;;;;6.20;99.90;;;;;;5064536;28;19913;-75
2022/04/18 03:16:36;;;;;;;;;;;6.30;99.90;;;;;;5065679;28;19919;-75
2022/04/18 03:19:02;;;;;;;;;;;6.30;99.90;;;;;;5071996;28;19952;-78
2022/04/18 03:21:27;;;;;;;;;;;6.30;99.90;;;;;;5067496;28;19916;-75
2022/04/18 03:23:53;;;;;;;;;;;6.30;99.90;;;;;;5057283;28;20239;-76
2022/04/18 03:26:19;;;;;;;;;;;6.30;99.90;;;;;;5061629;28;19928;-76
2022/04/18 03:28:44;;;;;;;;;;;6.30;99.90;;;;;;5060285;28;19912;-75
2022/04/18 03:31:10;;;;;;;;;;;6.20;99.90;;;;;;5067181;28;19951;-75
2022/04/18 03:33:35;;;;;;;;;;;6.10;99.90;;;;;;5060459;28;19956;-75
2022/04/18 03:41:29;;;;;;;;;;;5.90;99.90;;;;;;5070776;28;19923;-76
2022/04/18 03:43:55;;;;;;;;;;;5.90;99.90;;;;;;5074965;28;20018;-75
2022/04/18 03:46:20;;;;;;;;;;;5.90;99.90;;;;;;5074327;28;19920;-76
2022/04/18 03:48:46;;;;;;;;;;;5.90;99.90;;;;;;5074379;28;19920;-75
2022/04/18 03:51:12;;;;;;;;;;;5.90;99.90;;;;;;5071332;28;19928;-75
2022/04/18 03:53:37;;;;;;;;;;;5.90;99.90;;;;;;5057469;28;20034;-76
2022/04/18 03:56:03;;;;;;;;;;;6.00;99.90;;;;;;5071351;28;20295;-75
2022/04/18 03:58:29;;;;;;;;;;;5.90;99.90;;;;;;5057387;28;19917;-76
2022/04/18 04:00:54;;;;;;;;;;;5.90;99.90;;;;;;5064157;28;19913;-76
2022/04/18 04:03:20;;;;;;;;;;;5.90;99.90;;;;;;5057672;28;20358;-76
2022/04/18 04:05:45;;;;;;;;;;;5.80;99.90;;;;;;5055843;28;19909;-76
2022/04/18 04:08:11;;;;;;;;;;;5.70;99.90;;;;;;5057191;28;19923;-76
2022/04/18 04:10:36;;;;;;;;;;;5.50;99.90;;;;;;5075091;28;19916;-76
2022/04/18 04:13:02;;;;;;;;;;;5.40;99.90;;;;;;5069473;28;19968;-81
2022/04/18 04:15:27;;;;;;;;;;;5.50;99.90;;;;;;5075862;28;19908;-75
2022/04/18 04:17:53;;;;;;;;;;;5.50;99.90;;;;;;5068668;28;19916;-76
2022/04/18 04:20:19;;;;;;;;;;;5.60;99.90;;;;;;5055798;28;19919;-75
2022/04/18 04:22:48;;;;;;;;;;;5.60;99.90;;;;;;5061959;28;19970;-76
2022/04/18 04:25:14;;;;;;;;;;;5.50;99.90;;;;;;5074177;28;19920;-75
2022/04/18 04:27:40;;;;;;;;;;;5.50;99.90;;;;;;5065112;28;19912;-76
2022/04/18 04:30:06;;;;;;;;;;;5.60;99.90;;;;;;5067768;28;19912;-76
2022/04/18 04:32:31;;;;;;;;;;;5.70;99.90;;;;;;5069605;28;20383;-75
2022/04/18 04:34:57;;;;;;;;;;;5.70;99.90;;;;;;5074373;28;19912;-76
2022/04/18 04:37:22;;;;;;;;;;;5.70;99.90;;;;;;5075813;28;19912;-76
2022/04/18 04:39:48;;;;;;;;;;;5.70;99.90;;;;;;5060197;28;20319;-75
2022/04/18 04:42:14;;;;;;;;;;;5.70;99.90;;;;;;5058777;28;20323;-77
2022/04/18 04:44:40;;;;;;;;;;;5.70;99.90;;;;;;5055363;28;19916;-76
2022/04/18 04:47:06;;;;;;;;;;;5.70;99.90;;;;;;5055034;28;19992;-76
2022/04/18 04:49:31;;;;;;;;;;;5.80;99.90;;;;;;5067130;28;19966;-76
2022/04/18 04:51:57;;;;;;;;;;;5.90;99.90;;;;;;5064017;28;19917;-76
2022/04/18 04:54:22;;;;;;;;;;;5.90;99.90;;;;;;5062850;28;19966;-76
2022/04/18 04:56:48;;;;;;;;;;;5.90;99.90;;;;;;5056673;28;19920;-76
2022/04/18 04:59:14;;;;;;;;;;;6.00;99.90;;;;;;5071415;28;19999;-76
2022/04/18 05:01:39;;;;;;;;;;;6.10;99.90;;;;;;5060529;28;20253;-75
2022/04/18 05:04:05;;;;;;;;;;;6.20;99.90;;;;;;5077593;28;20304;-76
2022/04/18 05:06:30;;;;;;;;;;;6.20;99.90;;;;;;5063361;28;19934;-75
2022/04/18 05:08:56;;;;;;;;;;;6.30;99.90;;;;;;5074292;28;19954;-76
2022/04/18 05:11:22;;;;;;;;;;;6.40;99.90;;;;;;5069903;28;19920;-75
2022/04/18 05:13:48;;;;;;;;;;;6.40;99.90;;;;;;5075339;28;19935;-75
2022/04/18 05:16:13;;;;;;;;;;;6.40;99.90;;;;;;5071471;28;19923;-75
2022/04/18 05:18:39;;;;;;;;;;;6.60;99.90;;;;;;5057589;28;19955;-75
2022/04/18 05:21:04;;;;;;;;;;;6.60;99.90;;;;;;5076960;28;19908;-75
2022/04/18 05:23:30;;;;;;;;;;;6.70;99.90;;;;;;5077878;28;20006;-75
2022/04/18 05:25:55;;;;;;;;;;;6.70;99.90;;;;;;5077745;28;19908;-76
2022/04/18 05:28:21;;;;;;;;;;;6.80;99.90;;;;;;5077145;28;20289;-75
2022/04/18 05:30:47;;;;;;;;;;;7.00;99.90;;;;;;5077828;28;19912;-75
2022/04/18 05:33:13;;;;;;;;;;;7.00;99.90;;;;;;5076009;28;19920;-75
2022/04/18 05:35:38;;;;;;;;;;;7.10;99.90;;;;;;5077930;28;19919;-77
2022/04/18 05:38:04;;;;;;;;;;;7.10;99.90;;;;;;5070419;28;20002;-75
2022/04/18 05:40:31;;;;;;;;;;;7.10;99.90;;;;;;5077859;28;19912;-75
2022/04/18 05:42:57;;;;;;;;;;;7.20;99.90;;;;;;5074933;28;19917;-76
2022/04/18 05:45:23;;;;;;;;;;;7.20;99.90;;;;;;5076064;28;20316;-75
2022/04/18 05:47:48;;;;;;;;;;;7.20;99.90;;;;;;5071257;28;19923;-75
2022/04/18 05:50:14;;;;;;;;;;;7.20;99.90;;;;;;5074378;28;19920;-76
2022/04/18 05:52:39;;;;;;;;;;;7.20;99.90;;;;;;5075036;28;19922;-77
2022/04/18 05:55:05;;;;;;;;;;;7.20;99.90;;;;;;5075363;28;19934;-76
2022/04/18 05:57:30;;;;;;;;;;;7.20;99.90;;;;;;5076297;28;19909;-75
2022/04/18 05:59:56;;;;;;;;;;;7.30;99.90;;;;;;5069319;28;19912;-75
2022/04/18 06:02:21;;;;;;;;;;;7.50;99.90;;;;;;5070890;28;19920;-75
2022/04/18 06:04:47;;;;;;;;;;;7.70;99.90;;;;;;5076748;28;20003;-75
2022/04/18 06:07:12;;;;;;;;;;;7.80;99.90;;;;;;5070041;28;19971;-75
2022/04/18 06:09:38;;;;;;;;;;;8.00;99.90;;;;;;5068095;28;19921;-77
2022/04/18 06:12:04;;;;;;;;;;;8.20;99.90;;;;;;5075580;28;19980;-75
2022/04/18 06:14:29;;;;;;;;;;;8.30;99.90;;;;;;5075692;28;20277;-75
2022/04/18 06:16:55;;;;;;;;;;;8.40;99.90;;;;;;5076602;28;19909;-75
2022/04/18 06:19:20;;;;;;;;;;;8.50;99.90;;;;;;5073018;28;19913;-75
2022/04/18 06:21:48;;;;;;;;;;;8.60;99.90;;;;;;5074417;28;19963;-75
2022/04/18 06:24:14;;;;;;;;;;;8.80;99.90;;;;;;5075109;28;20329;-75
2022/04/18 06:26:39;;;;;;;;;;;8.90;99.90;;;;;;5073565;28;20028;-75
2022/04/18 06:29:05;;;;;;;;;;;9.00;99.90;;;;;;5071783;28;19912;-75
2022/04/18 06:31:31;;;;;;;;;;;9.10;99.90;;;;;;5074704;28;20192;-75
2022/04/18 06:33:56;;;;;;;;;;;9.20;99.90;;;;;;5072199;28;20205;-75
2022/04/18 06:36:22;;;;;;;;;;;9.40;99.90;;;;;;5074606;28;19979;-77
2022/04/18 06:38:47;;;;;;;;;;;9.50;99.90;;;;;;5074383;28;20007;-76
2022/04/18 06:41:13;;;;;;;;;;;9.60;99.90;;;;;;5070235;28;19920;-77
2022/04/18 06:43:39;;;;;;;;;;;9.70;99.90;;;;;;5075450;28;19916;-76
2022/04/18 06:46:04;;;;;;;;;;;9.70;99.90;;;;;;5072608;28;19920;-77
2022/04/18 06:48:30;;;;;;;;;;;9.80;99.90;;;;;;5075324;28;19916;-77
2022/04/18 06:50:56;;;;;;;;;;;9.90;99.90;;;;;;5068286;28;19912;-76
2022/04/18 06:53:22;;;;;;;;;;;10.00;99.90;;;;;;5069220;28;19924;-76
2022/04/18 06:58:32;;;;;;;;;;;10.50;99.80;;;;;;5073716;28;19923;-79
2022/04/18 07:00:57;;;;;;;;;;;10.80;99.40;;;;;;5075282;28;20262;-77
2022/04/18 07:03:23;;;;;;;;;;;11.10;99.90;;;;;;5069840;28;19913;-76
2022/04/18 07:05:49;;;;;;;;;;;11.70;98.90;;;;;;5070666;28;19916;-77
2022/04/18 07:08:15;;;;;;;;;;;12.60;99.50;;;;;;5074709;28;19916;-78
2022/04/18 07:10:40;;;;;;;;;;;13.60;96.60;;;;;;5071279;28;20204;-76
2022/04/18 07:13:06;;;;;;;;;;;14.50;94.80;;;;;;5058603;28;19924;-76
2022/04/18 07:15:32;;;;;;;;;;;15.20;94.50;;;;;;5049646;28;19990;-78
2022/04/18 07:17:58;;;;;;;;;;;15.70;92.90;;;;;;5075480;28;20353;-78
2022/04/18 07:20:24;;;;;;;;;;;16.10;91.50;;;;;;5075920;28;19908;-78
2022/04/18 07:22:49;;;;;;;;;;;16.40;89.40;;;;;;5074841;28;19912;-77
2022/04/18 07:25:15;;;;;;;;;;;16.90;91.10;;;;;;5071346;28;19934;-78
2022/04/18 07:27:41;;;;;;;;;;;17.30;88.60;;;;;;5058345;28;19909;-78
2022/04/18 07:30:06;;;;;;;;;;;17.60;91.00;;;;;;5054905;28;19912;-79
2022/04/18 07:32:37;;;;;;;;;;;17.80;88.90;;;;;;5073720;28;20276;-77
2022/04/18 07:35:03;;;;;;;;;;;18.10;86.10;;;;;;5071665;28;20383;-78
2022/04/18 07:37:28;;;;;;;;;;;18.50;84.20;;;;;;5073900;28;20006;-77
2022/04/18 07:39:54;;;;;;;;;;;18.60;83.90;;;;;;5072919;28;20326;-78
2022/04/18 07:42:20;;;;;;;;;;;18.90;80.30;;;;;;5073569;28;19913;-78
2022/04/18 07:44:46;;;;;;;;;;;19.00;80.70;;;;;;5070734;28;19919;-79
2022/04/18 07:47:11;;;;;;;;;;;19.30;78.50;;;;;;5065718;28;19921;-79
2022/04/18 07:49:37;;;;;;;;;;;19.20;80.90;;;;;;5072028;28;19936;-78
2022/04/18 07:52:03;;;;;;;;;;;19.60;82.00;;;;;;5071578;28;19927;-78
2022/04/18 07:54:28;;;;;;;;;;;19.60;78.80;;;;;;5073003;28;20164;-78
2022/04/18 07:56:54;;;;;;;;;;;19.60;76.00;;;;;;5070406;28;19917;-78
2022/04/18 07:59:19;;;;;;;;;;;19.80;79.30;;;;;;5072951;28;19919;-78
2022/04/18 08:01:45;;;;;;;;;;;19.90;78.00;;;;;;5061560;28;19913;-78
2022/04/18 08:04:10;;;;;;;;;;;20.20;74.20;;;;;;5057671;28;19959;-77
2022/04/18 08:06:36;;;;;;;;;;;20.10;75.90;;;;;;5073079;28;19920;-77
2022/04/18 08:09:02;;;;;;;;;;;20.20;77.50;;;;;;5074461;28;19916;-78
2022/04/18 08:11:27;;;;;;;;;;;20.20;76.50;;;;;;5074468;28;20227;-77
2022/04/18 08:13:53;;;;;;;;;;;20.40;73.50;;;;;;5074906;28;19920;-77
2022/04/18 08:16:19;;;;;;;;;;;20.40;76.30;;;;;;5072623;28;19958;-77
2022/04/18 08:18:45;;;;;;;;;;;20.40;71.80;;;;;;5074566;28;19912;-78
2022/04/18 08:21:12;;;;;;;;;;;20.10;73.50;;;;;;5074215;28;20007;-78
2022/04/18 08:23:38;;;;;;;;;;;20.20;72.00;;;;;;5075496;28;19920;-77
2022/04/18 08:26:04;;;;;;;;;;;20.20;74.30;;;;;;5095567;28;19908;-78
2022/04/18 08:28:30;;;;;;;;;;;20.30;73.10;;;;;;5066887;28;19912;-79
2022/04/18 08:30:55;;;;;;;;;;;20.30;74.30;;;;;;5073973;28;19919;-77
2022/04/18 08:33:21;;;;;;;;;;;20.10;73.80;;;;;;5075527;28;19958;-78
2022/04/18 08:35:47;;;;;;;;;;;20.20;73.60;;;;;;5074383;28;19917;-77
2022/04/18 08:38:12;;;;;;;;;;;20.30;75.20;;;;;;5074122;28;20211;-77
2022/04/18 08:40:40;;;;;;;;;;;20.00;74.10;;;;;;5074860;28;20004;-77
2022/04/18 08:43:06;;;;;;;;;;;20.10;75.20;;;;;;5074284;28;20180;-77
2022/04/18 08:45:31;;;;;;;;;;;20.30;73.80;;;;;;5078257;28;19913;-77
2022/04/18 08:53:27;;;;;;;;;;;20.60;72.10;;;;;;5079288;28;19923;-76
2022/04/18 08:55:54;;;;;;;;;;;20.60;71.80;;;;;;5078147;28;19978;-77
2022/04/18 08:58:21;;;;;;;;;;;20.40;72.00;;;;;;5079467;28;19995;-76
2022/04/18 09:00:46;;;;;;;;;;;20.50;73.50;;;;;;5079040;28;19917;-76
2022/04/18 09:03:12;;;;;;;;;;;20.30;71.40;;;;;;5078100;28;19917;-76
2022/04/18 09:05:38;;;;;;;;;;;20.20;71.70;;;;;;5077872;28;19915;-76
2022/04/18 09:08:05;;;;;;;;;;;20.10;72.80;;;;;;5074601;28;19995;-76
2022/04/18 09:10:31;;;;;;;;;;;20.00;73.00;;;;;;5073964;28;20218;-76
2022/04/18 09:13:02;;;;;;;;;;;19.70;73.60;;;;;;5066114;28;19929;-75
2022/04/18 09:15:29;;;;;;;;;;;19.80;73.80;;;;;;5059529;28;20214;-76
2022/04/18 09:18:05;;;;;;;;;;;19.80;73.10;;;;;;5055144;28;19913;-76
2022/04/18 09:20:39;;;;;;;;;;;19.90;71.50;;;;;;5057613;28;19921;-76
2022/04/18 09:23:05;;;;;;;;;;;20.10;73.20;;;;;;5075037;28;19912;-79
2022/04/18 09:25:36;;;;;;;;;;;20.00;72.00;;;;;;5073968;28;19919;-76
2022/04/18 09:28:02;;;;;;;;;;;20.40;70.20;;;;;;5075078;28;20035;-76
2022/04/18 09:30:31;;;;;;;;;;;20.50;71.60;;;;;;5059398;28;19996;-77
2022/04/18 09:33:00;;;;;;;;;;;20.40;70.60;;;;;;5054854;28;19923;-76
2022/04/18 09:35:26;;;;;;;;;;;20.40;71.80;;;;;;5053858;28;19913;-76
2022/04/18 09:37:53;;;;;;;;;;;20.50;71.10;;;;;;5073657;28;19916;-76
2022/04/18 09:40:22;;;;;;;;;;;20.50;70.60;;;;;;5075126;28;19912;-76
2022/04/18 09:42:50;;;;;;;;;;;20.90;71.20;;;;;;5074987;28;19912;-77
2022/04/18 09:45:17;;;;;;;;;;;21.40;72.10;;;;;;5074883;28;20034;-75
2022/04/18 09:47:43;;;;;;;;;;;21.80;70.70;;;;;;5074176;28;19916;-76
2022/04/18 09:50:58;;;;;;;;;;;22.20;67.00;;;;;;5073328;28;19966;-80
2022/04/18 09:53:01;;;;;;;;;;;22.30;68.50;;;;;;5074361;28;19916;-77
2022/04/18 09:55:28;;;;;;;;;;;22.30;67.10;;;;;;5074488;28;20093;-76
2022/04/18 09:57:54;;;;;;;;;;;22.40;67.90;;;;;;5071824;28;19917;-77
2022/04/18 10:00:19;;;;;;;;;;;22.30;67.90;;;;;;5073308;28;19954;-77
2022/04/18 10:02:45;;;;;;;;;;;22.10;68.70;;;;;;5056259;28;19921;-76
2022/04/18 10:05:10;;;;;;;;;;;21.80;68.30;;;;;;5073146;28;20196;-77
2022/04/18 10:07:36;;;;;;;;;;;21.70;65.80;;;;;;5072829;28;19923;-80
2022/04/18 10:10:02;;;;;;;;;;;21.80;65.60;;;;;;5074279;28;20271;-76
2022/04/18 10:12:28;;;;;;;;;;;21.40;69.10;;;;;;5072943;28;20009;-77
2022/04/18 10:14:53;;;;;;;;;;;21.30;70.30;;;;;;5074229;28;19919;-76
2022/04/18 10:17:21;;;;;;;;;;;21.20;69.60;;;;;;5072011;28;20555;-77
2022/04/18 10:19:52;;;;;;;;;;;21.30;70.60;;;;;;5056663;28;19923;-76
2022/04/18 10:22:36;;;;;;;;;;;21.40;71.00;;;;;;5054124;28;19913;-76
2022/04/18 10:25:21;;;;;;;;;;;21.60;67.50;;;;;;5052736;28;20293;-78
2022/04/18 10:28:04;;;;;;;;;;;22.10;69.40;;;;;;5056532;28;19916;-79
2022/04/18 10:30:35;;;;;;;;;;;22.30;70.20;;;;;;5072595;28;20345;-77
2022/04/18 10:33:02;;;;;;;;;;;22.10;69.00;;;;;;5073733;28;19924;-76
2022/04/18 10:35:27;;;;;;;;;;;22.00;70.80;;;;;;5072468;28;20006;-76
2022/04/18 10:37:56;;;;;;;;;;;22.10;65.70;;;;;;5074113;28;19999;-76
2022/04/18 10:40:22;;;;;;;;;;;22.10;69.60;;;;;;5072087;28;19917;-76
2022/04/18 10:42:48;;;;;;;;;;;22.10;66.90;;;;;;5072352;28;19912;-80
2022/04/18 10:45:17;;;;;;;;;;;22.10;70.90;;;;;;5072299;28;19927;-76
2022/04/18 10:48:01;;;;;;;;;;;22.10;68.70;;;;;;5073922;28;19917;-76
2022/04/18 10:50:34;;;;;;;;;;;21.90;69.10;;;;;;5062933;28;20231;-76
2022/04/18 10:53:10;;;;;;;;;;;21.70;68.00;;;;;;5052079;28;19960;-76
2022/04/18 10:55:37;;;;;;;;;;;21.90;67.00;;;;;;5051997;28;19912;-79
2022/04/18 10:58:09;;;;;;;;;;;22.20;65.80;;;;;;5052113;28;19913;-76
2022/04/18 11:00:51;;;;;;;;;;;22.20;67.90;;;;;;5066951;28;19920;-76
2022/04/18 11:03:34;;;;;;;;;;;22.00;69.10;;;;;;5073346;28;20003;-76
2022/04/18 11:06:00;;;;;;;;;;;22.10;65.70;;;;;;5056275;28;19920;-75
2022/04/18 11:08:29;;;;;;;;;;;21.80;69.80;;;;;;5053135;28;19913;-77
2022/04/18 11:11:14;;;;;;;;;;;21.80;67.70;;;;;;5065447;28;19928;-76
2022/04/18 11:13:42;;;;;;;;;;;21.90;66.70;;;;;;5073158;28;19924;-76
2022/04/18 11:16:23;;;;;;;;;;;22.10;69.80;;;;;;5071801;28;19912;-76
2022/04/18 11:19:24;;;;;;;;;;;22.30;69.80;;;;;;5070815;28;19912;-76
2022/04/18 11:21:54;;;;;;;;;;;22.30;67.60;;;;;;5027803;28;19925;-76
2022/04/18 11:24:36;;;;;;;;;;;22.30;69.10;;;;;;5012461;28;19922;-76
2022/04/18 11:27:02;;;;;;;;;;;22.40;70.20;;;;;;5010894;28;19913;-76
2022/04/18 11:29:30;;;;;;;;;;;22.30;67.10;;;;;;5030349;28;19913;-76
2022/04/18 11:31:56;;;;;;;;;;;22.50;66.90;;;;;;5030240;28;20310;-80
2022/04/18 11:34:24;;;;;;;;;;;22.50;69.00;;;;;;5013790;28;19944;-76
2022/04/18 11:36:50;;;;;;;;;;;22.40;67.60;;;;;;5010519;28;19918;-76
2022/04/18 11:39:16;;;;;;;;;;;22.30;67.00;;;;;;5010416;28;19936;-75
2022/04/18 11:41:41;;;;;;;;;;;22.40;69.10;;;;;;5030151;28;19917;-76
2022/04/18 11:44:07;;;;;;;;;;;22.40;69.00;;;;;;5012086;28;19972;-76
2022/04/18 11:46:32;;;;;;;;;;;22.50;69.90;;;;;;5010530;28;19921;-76
2022/04/18 11:48:58;;;;;;;;;;;22.50;67.90;;;;;;5019362;28;20027;-80
2022/04/18 11:51:36;;;;;;;;;;;22.70;68.20;;;;;;5029925;28;20064;-75
2022/04/18 11:54:01;;;;;;;;;;;22.60;67.90;;;;;;5029912;28;19963;-76
2022/04/18 11:56:28;;;;;;;;;;;23.00;66.70;;;;;;5056498;28;19913;-81
2022/04/18 11:58:53;;;;;;;;;;;23.30;66.10;;;;;;5066179;28;20259;-76
2022/04/18 12:06:51;;;;;;;;;;;24.00;66.40;;;;;;5052448;28;19964;-76
2022/04/18 12:09:17;;;;;;;;;;;23.90;66.50;;;;;;5058273;28;19916;-80
2022/04/18 12:11:43;;;;;;;;;;;23.90;68.10;;;;;;5071825;28;19920;-76
2022/04/18 12:14:09;;;;;;;;;;;24.00;66.70;;;;;;5072383;28;19924;-76
2022/04/18 12:16:35;;;;;;;;;;;23.90;58.00;;;;;;5070925;28;19912;-76
2022/04/18 12:19:01;;;;;;;;;;;23.70;66.10;;;;;;5070230;28;19995;-75
2022/04/18 12:21:27;;;;;;;;;;;23.60;65.00;;;;;;5051860;28;20007;-75
2022/04/18 12:23:57;;;;;;;;;;;23.50;62.80;;;;;;5050901;28;19913;-76
2022/04/18 12:26:26;;;;;;;;;;;23.50;66.20;;;;;;5051865;28;20322;-76
2022/04/18 12:28:59;;;;;;;;;;;23.70;61.60;;;;;;5051860;28;19917;-76
2022/04/18 12:31:25;;;;;;;;;;;23.60;64.30;;;;;;5054754;28;19917;-75
2022/04/18 12:33:51;;;;;;;;;;;23.60;65.60;;;;;;5061070;28;19921;-75
2022/04/18 12:36:23;;;;;;;;;;;23.60;65.00;;;;;;5039008;28;20215;-75
2022/04/18 12:38:48;;;;;;;;;;;23.50;65.90;;;;;;5051911;28;19913;-76
2022/04/18 12:41:14;;;;;;;;;;;23.50;67.70;;;;;;5064938;28;19923;-79
2022/04/18 12:43:40;;;;;;;;;;;23.60;64.70;;;;;;5071787;28;19916;-75
2022/04/18 12:46:07;;;;;;;;;;;23.60;65.40;;;;;;5070833;28;19969;-76
2022/04/18 12:48:33;;;;;;;;;;;23.70;66.50;;;;;;5070898;28;19924;-75
2022/04/18 12:51:00;;;;;;;;;;;23.70;64.80;;;;;;5068462;28;19921;-76
2022/04/18 12:53:46;;;;;;;;;;;24.00;65.70;;;;;;5072047;28;19923;-76
2022/04/18 12:56:13;;;;;;;;;;;24.00;65.20;;;;;;5070291;28;19912;-76
2022/04/18 12:58:40;;;;;;;;;;;23.90;64.30;;;;;;5071682;28;19912;-76
2022/04/18 13:01:06;;;;;;;;;;;24.00;63.20;;;;;;5071279;28;19923;-75
2022/04/18 13:03:44;;;;;;;;;;;24.00;62.10;;;;;;5072011;28;19965;-76
2022/04/18 13:06:10;;;;;;;;;;;23.90;63.20;;;;;;5070203;28;19916;-76
2022/04/18 13:08:37;;;;;;;;;;;23.70;61.50;;;;;;5070269;28;19917;-76
2022/04/18 13:11:03;;;;;;;;;;;23.80;62.60;;;;;;5070982;28;20258;-75
2022/04/18 13:13:28;;;;;;;;;;;23.90;62.80;;;;;;5051538;28;20387;-75
2022/04/18 13:15:54;;;;;;;;;;;23.90;65.50;;;;;;5066154;28;20011;-75
2022/04/18 13:18:24;;;;;;;;;;;23.90;63.50;;;;;;5071857;28;19923;-75
2022/04/18 13:20:50;;;;;;;;;;;23.80;62.30;;;;;;5071412;28;20290;-75
2022/04/18 13:23:15;;;;;;;;;;;23.70;63.70;;;;;;5054920;28;19909;-75
2022/04/18 13:25:41;;;;;;;;;;;23.70;62.60;;;;;;5050203;28;20326;-75
2022/04/18 13:28:09;;;;;;;;;;;23.40;61.60;;;;;;5051423;28;20023;-75
2022/04/18 13:30:38;;;;;;;;;;;23.50;62.70;;;;;;5049840;28;20304;-75
2022/04/18 13:33:05;;;;;;;;;;;23.50;61.10;;;;;;5061619;28;19923;-75
2022/04/18 13:36:30;;;;;;;;;;;23.40;60.80;;;;;;5074863;28;19916;-76
2022/04/18 13:38:21;;;;;;;;;;;23.40;61.00;;;;;;5074807;28;19943;-75
2022/04/18 13:40:46;;;;;;;;;;;23.30;61.90;;;;;;5074904;28;20593;-75
2022/04/18 13:43:14;;;;;;;;;;;23.40;59.50;;;;;;5073448;28;19912;-76
2022/04/18 13:45:40;;;;;;;;;;;23.50;60.50;;;;;;5073668;28;19928;-75
2022/04/18 13:48:06;;;;;;;;;;;23.50;61.90;;;;;;5074183;28;20271;-76
2022/04/18 13:50:31;;;;;;;;;;;23.40;61.40;;;;;;5075041;28;19923;-75
2022/04/18 13:52:57;;;;;;;;;;;23.30;62.80;;;;;;5074108;28;20003;-75
2022/04/18 13:55:23;;;;;;;;;;;23.30;59.80;;;;;;5073312;28;19970;-75
2022/04/18 13:57:48;;;;;;;;;;;23.00;61.00;;;;;;5073596;28;20009;-75
2022/04/18 14:00:14;;;;;;;;;;;22.80;63.00;;;;;;5073118;28;19966;-75
2022/04/18 14:02:40;;;;;;;;;;;22.80;60.70;;;;;;5073852;28;19939;-75
2022/04/18 14:05:05;;;;;;;;;;;22.80;62.50;;;;;;5073297;28;19982;-75
2022/04/18 14:07:31;;;;;;;;;;;22.70;62.50;;;;;;5073185;28;19916;-79
2022/04/18 14:09:57;;;;;;;;;;;22.70;59.90;;;;;;5072971;28;19919;-75
2022/04/18 14:12:23;;;;;;;;;;;23.00;62.40;;;;;;5073105;28;19920;-75
2022/04/18 14:20:25;;;;;;;;;;;22.80;61.30;;;;;;5053406;28;20541;-75
2022/04/18 14:22:51;;;;;;;;;;;22.90;61.90;;;;;;5055636;28;19948;-76
2022/04/18 14:25:18;;;;;;;;;;;23.20;62.10;;;;;;5072840;28;19927;-75
2022/04/18 14:27:44;;;;;;;;;;;23.00;60.70;;;;;;5074249;28;19924;-75
2022/04/18 14:30:09;;;;;;;;;;;22.80;62.30;;;;;;5072588;28;19912;-77
2022/04/18 14:32:35;;;;;;;;;;;22.80;60.90;;;;;;5073801;28;20353;-80
2022/04/18 14:35:02;;;;;;;;;;;22.80;60.80;;;;;;5057678;28;19916;-75
2022/04/18 14:37:27;;;;;;;;;;;22.80;60.50;;;;;;5073732;28;19916;-75
2022/04/18 14:39:53;;;;;;;;;;;22.80;62.60;;;;;;5072201;28;19965;-75
2022/04/18 14:42:23;;;;;;;;;;;22.70;63.10;;;;;;5072819;28;19924;-75
2022/04/18 14:44:52;;;;;;;;;;;22.40;62.20;;;;;;5069308;28;19927;-75
2022/04/18 14:47:18;;;;;;;;;;;22.40;61.80;;;;;;5069084;28;19995;-75
2022/04/18 14:49:44;;;;;;;;;;;22.50;61.30;;;;;;5075498;28;20453;-75